Norwegian Star — C6FR3 — position and weather

sailwx.info

Track history (hours):
 
Tides and Currents Weather Stations Pressure Air Temp Water Temp Dewpoint Dewpoint Depression Visibility Wind Speed Wind Dir Waves Ship Positions

Norwegian Star

Operator: Norwegian Cruise Line

Last reported at 2015-May-27 01:33 UTC. Time now 2015-May-27 01:53 UTC.
Position N 56°07' E 012°32'.

Type: Ship. MMSI: 311082000.

Date/timePositionNaut miles runAvg speedWind from/ knotsBaromVisibWave heightAir tempDewpointWater temp
2015-May-27 01:33N 56°07' E 012°32'1414.0
2015-May-27 00:33N 56°15' E 012°12'1613.5
2015-May-26 23:24N 56°28' E 011°59'1214.4
2015-May-26 22:33N 56°40' E 011°54'1515.1
2015-May-26 21:33N 56°54' E 011°45'1514.7
2015-May-26 20:33N 57°09' E 011°36'1515.0
2015-May-26 19:33N 57°22' E 011°26'1414.2
2015-May-26 18:33N 57°34' E 011°11'1515.1
2015-May-26 17:33N 57°44' E 010°50'1414.2
2015-May-26 16:34N 57°50' E 010°26'1514.6
2015-May-26 15:34N 57°52' E 009°59'1515.1
2015-May-26 14:34N 57°50' E 009°31'11514.1
2015-May-26 06:25N 58°01' E 005°56'3015.8
2015-May-26 04:33N 58°20' E 005°13'  
2015-May-21 12:22N 58°59' E 004°17'1517.4
2015-May-21 11:31N 58°48' E 004°35'2117.3
2015-May-21 10:19N 58°33' E 005°02'1417.7
2015-May-21 09:33N 58°22' E 005°19'1918.4
2015-May-21 08:33N 58°10' E 005°45'4517.7
2015-May-21 06:00N 57°48' E 007°00'7118.1 240 / 111014.0 11.0
2015-May-21 02:05N 57°50' E 009°13'1317.2
2015-May-21 01:19N 57°51' E 009°37'1316.7
2015-May-21 00:33N 57°52' E 010°01'1717.0
2015-May-20 23:33N 57°51' E 010°33'1919.5
2015-May-20 22:33N 57°41' E 011°04'2020.3
2015-May-20 21:33N 57°26' E 011°29'2120.8
2015-May-20 20:33N 57°06' E 011°41'2120.5
2015-May-20 19:33N 56°47' E 011°54'2020.2
2015-May-20 18:33N 56°27' E 012°02'1716.8
2015-May-20 17:33N 56°13' E 012°19'1717.1
2015-May-20 16:34N 56°01' E 012°41'1615.6
2015-May-20 15:33N 55°45' E 012°41'3 3.5
2015-May-20 14:33N 55°43' E 012°37'0 0.0
2015-May-20 13:33N 55°43' E 012°37'0 0.0
2015-May-20 12:33N 55°43' E 012°37'0 0.0
2015-May-20 11:33N 55°43' E 012°37'0 0.0
2015-May-20 10:33N 55°43' E 012°37'0 0.0
2015-May-20 09:33N 55°43' E 012°37'0 0.0
2015-May-20 08:30N 55°43' E 012°37'0 0.0
2015-May-20 07:33N 55°43' E 012°37'0 0.0
2015-May-20 06:33N 55°43' E 012°37'0 0.0
2015-May-20 05:33N 55°43' E 012°37'0 0.0
2015-May-20 04:33N 55°43' E 012°37'5 4.5
2015-May-20 03:33N 55°46' E 012°42'1615.8
2015-May-20 02:33N 56°02' E 012°39'1919.0
2015-May-20 01:33N 56°12' E 012°11'10016.6
2015-May-19 19:31N 54°43' E 010°52'1919.8
2015-May-19 18:33N 54°34' E 011°20'2020.3
2015-May-19 17:33N 54°26' E 011°53'2317.4
2015-May-19 16:16N 54°39' E 012°25'1419.6
2015-May-19 15:32N 54°48' E 012°45'2020.2
2015-May-19 14:31N 54°55' E 013°17'4020.4
2015-May-19 12:33N 55°14' E 014°19'2120.6
2015-May-19 11:33N 55°29' E 014°44'2121.0
2015-May-19 10:33N 55°37' E 015°18'2121.1
2015-May-19 09:33N 55°48' E 015°51'8520.2
2015-May-19 05:21N 56°56' E 017°23'1721.4
2015-May-19 04:33N 57°12' E 017°32'2120.9
2015-May-19 03:33N 57°33' E 017°41'12813.4
2015-May-18 18:00N 59°36' E 018°48'2010.6 030 / 61007.0 11.0
2015-May-18 16:07N 59°22' E 018°20'610.6
2015-May-18 15:33N 59°20' E 018°09'1 0.7
2015-May-18 14:09N 59°21' E 018°07'0 0.0
2015-May-18 09:24N 59°21' E 018°07'0 0.0
2015-May-18 07:33N 59°21' E 018°07'0 0.0
2015-May-18 06:33N 59°21' E 018°07'1 0.6
2015-May-18 05:33N 59°21' E 018°08'10 7.9
2015-May-18 04:20N 59°23' E 018°27'7811.4
2015-May-17 21:31N 59°32' E 020°59'1617.3
2015-May-17 20:34N 59°27' E 021°30'3717.9
2015-May-17 18:28N 59°32' E 022°44'1718.2
2015-May-17 17:32N 59°37' E 023°15'1818.1
2015-May-17 16:33N 59°43' E 023°49'1818.2
2015-May-17 15:34N 59°48' E 024°23'1917.6
2015-May-17 14:28N 59°59' E 024°54'10 0.9
2015-May-17 03:23N 60°09' E 024°55'  
Track history (hours):
 
Tides and Currents Weather Stations Pressure Air Temp Water Temp Dewpoint Dewpoint Depression Visibility Wind Speed Wind Dir Waves Ship Positions

Norwegian Star

Operator: Norwegian Cruise Line

Last reported at 2015-May-27 01:33 UTC. Time now 2015-May-27 01:53 UTC.
Position N 56°07' E 012°32'.

Type: Ship. MMSI: 311082000.

Date/timePositionNaut miles runAvg speedWind from/ knotsBaromVisibWave heightAir tempDewpointWater temp
2015-May-27 01:33N 56°07' E 012°32'1414.0
2015-May-27 00:33N 56°15' E 012°12'1613.5
2015-May-26 23:24N 56°28' E 011°59'1214.4
2015-May-26 22:33N 56°40' E 011°54'1515.1
2015-May-26 21:33N 56°54' E 011°45'1514.7
2015-May-26 20:33N 57°09' E 011°36'1515.0
2015-May-26 19:33N 57°22' E 011°26'1414.2
2015-May-26 18:33N 57°34' E 011°11'1515.1
2015-May-26 17:33N 57°44' E 010°50'1414.2
2015-May-26 16:34N 57°50' E 010°26'1514.6
2015-May-26 15:34N 57°52' E 009°59'1515.1
2015-May-26 14:34N 57°50' E 009°31'11514.1
2015-May-26 06:25N 58°01' E 005°56'3015.8
2015-May-26 04:33N 58°20' E 005°13'  
2015-May-21 12:22N 58°59' E 004°17'1517.4
2015-May-21 11:31N 58°48' E 004°35'2117.3
2015-May-21 10:19N 58°33' E 005°02'1417.7
2015-May-21 09:33N 58°22' E 005°19'1918.4
2015-May-21 08:33N 58°10' E 005°45'4517.7
2015-May-21 06:00N 57°48' E 007°00'7118.1 240 / 111014.0 11.0
2015-May-21 02:05N 57°50' E 009°13'1317.2
2015-May-21 01:19N 57°51' E 009°37'1316.7
2015-May-21 00:33N 57°52' E 010°01'1717.0
2015-May-20 23:33N 57°51' E 010°33'1919.5
2015-May-20 22:33N 57°41' E 011°04'2020.3
2015-May-20 21:33N 57°26' E 011°29'2120.8
2015-May-20 20:33N 57°06' E 011°41'2120.5
2015-May-20 19:33N 56°47' E 011°54'2020.2
2015-May-20 18:33N 56°27' E 012°02'1716.8
2015-May-20 17:33N 56°13' E 012°19'1717.1
2015-May-20 16:34N 56°01' E 012°41'1615.6
2015-May-20 15:33N 55°45' E 012°41'3 3.5
2015-May-20 14:33N 55°43' E 012°37'0 0.0
2015-May-20 13:33N 55°43' E 012°37'0 0.0
2015-May-20 12:33N 55°43' E 012°37'0 0.0
2015-May-20 11:33N 55°43' E 012°37'0 0.0
2015-May-20 10:33N 55°43' E 012°37'0 0.0
2015-May-20 09:33N 55°43' E 012°37'0 0.0
2015-May-20 08:30N 55°43' E 012°37'0 0.0
2015-May-20 07:33N 55°43' E 012°37'0 0.0
2015-May-20 06:33N 55°43' E 012°37'0 0.0
2015-May-20 05:33N 55°43' E 012°37'0 0.0
2015-May-20 04:33N 55°43' E 012°37'5 4.5
2015-May-20 03:33N 55°46' E 012°42'1615.8
2015-May-20 02:33N 56°02' E 012°39'1919.0
2015-May-20 01:33N 56°12' E 012°11'10016.6
2015-May-19 19:31N 54°43' E 010°52'1919.8
2015-May-19 18:33N 54°34' E 011°20'2020.3
2015-May-19 17:33N 54°26' E 011°53'2317.4
2015-May-19 16:16N 54°39' E 012°25'1419.6
2015-May-19 15:32N 54°48' E 012°45'2020.2
2015-May-19 14:31N 54°55' E 013°17'4020.4
2015-May-19 12:33N 55°14' E 014°19'2120.6
2015-May-19 11:33N 55°29' E 014°44'2121.0
2015-May-19 10:33N 55°37' E 015°18'2121.1
2015-May-19 09:33N 55°48' E 015°51'8520.2
2015-May-19 05:21N 56°56' E 017°23'1721.4
2015-May-19 04:33N 57°12' E 017°32'2120.9
2015-May-19 03:33N 57°33' E 017°41'12813.4
2015-May-18 18:00N 59°36' E 018°48'2010.6 030 / 61007.0 11.0
2015-May-18 16:07N 59°22' E 018°20'610.6
2015-May-18 15:33N 59°20' E 018°09'1 0.7
2015-May-18 14:09N 59°21' E 018°07'0 0.0
2015-May-18 09:24N 59°21' E 018°07'0 0.0
2015-May-18 07:33N 59°21' E 018°07'0 0.0
2015-May-18 06:33N 59°21' E 018°07'1 0.6
2015-May-18 05:33N 59°21' E 018°08'10 7.9
2015-May-18 04:20N 59°23' E 018°27'7811.4
2015-May-17 21:31N 59°32' E 020°59'1617.3
2015-May-17 20:34N 59°27' E 021°30'3717.9
2015-May-17 18:28N 59°32' E 022°44'1718.2
2015-May-17 17:32N 59°37' E 023°15'1818.1
2015-May-17 16:33N 59°43' E 023°49'1818.2
2015-May-17 15:34N 59°48' E 024°23'1917.6
2015-May-17 14:28N 59°59' E 024°54'10 0.9
2015-May-17 03:23N 60°09' E 024°55'  

Dump ship's entire track history